createdAt,value
2019-05-22T00:00:24.870Z,0.00
2019-05-22T00:01:24.822Z,0.00
2019-05-22T00:02:24.865Z,0.00
2019-05-22T00:03:24.846Z,0.00
2019-05-22T00:04:24.847Z,0.00
2019-05-22T00:05:24.840Z,0.00
2019-05-22T00:06:24.780Z,0.00
2019-05-22T00:07:24.744Z,0.00
2019-05-22T00:08:24.771Z,0.00
2019-05-22T00:09:24.761Z,0.00
2019-05-22T00:10:24.774Z,0.00
2019-05-22T00:11:24.709Z,0.00
2019-05-22T00:12:24.760Z,0.00
2019-05-22T00:13:24.671Z,0.00
2019-05-22T00:14:24.700Z,0.00
2019-05-22T00:15:24.723Z,0.00
2019-05-22T00:16:24.720Z,0.00
2019-05-22T00:17:24.626Z,0.00
2019-05-22T00:18:24.637Z,0.00
2019-05-22T00:19:24.746Z,0.00
2019-05-22T00:20:24.601Z,0.00
2019-05-22T00:21:24.628Z,0.00
2019-05-22T00:22:24.637Z,0.00
2019-05-22T00:23:24.571Z,0.00
2019-05-22T00:24:24.570Z,0.00
2019-05-22T00:25:24.605Z,0.00
2019-05-22T00:26:24.622Z,0.00
2019-05-22T00:27:24.514Z,0.00
2019-05-22T00:28:24.533Z,0.00
2019-05-22T00:29:24.537Z,0.00
2019-05-22T00:30:24.575Z,0.00
2019-05-22T00:31:24.527Z,0.00
2019-05-22T00:32:24.482Z,0.00
2019-05-22T00:33:24.475Z,0.00
2019-05-22T00:34:24.460Z,0.00
2019-05-22T00:35:24.616Z,0.00
2019-05-22T00:36:24.436Z,0.00
2019-05-22T00:37:24.464Z,0.00
2019-05-22T00:38:24.432Z,0.00
2019-05-22T00:39:24.416Z,0.00
2019-05-22T00:40:24.375Z,0.00
2019-05-22T00:41:24.380Z,0.00
2019-05-22T00:42:24.403Z,0.00
2019-05-22T00:43:24.352Z,0.00
2019-05-22T00:44:24.340Z,0.00
2019-05-22T00:45:24.350Z,0.00
2019-05-22T00:46:24.318Z,0.00
2019-05-22T00:47:24.327Z,0.00
2019-05-22T00:48:24.365Z,0.00
2019-05-22T00:49:24.328Z,0.00
2019-05-22T00:50:24.926Z,0.00
2019-05-22T00:51:24.290Z,0.00
2019-05-22T00:52:24.279Z,0.00
2019-05-22T00:53:24.263Z,0.00
2019-05-22T00:54:24.245Z,0.00
2019-05-22T00:55:24.228Z,0.00
2019-05-22T00:56:24.213Z,0.00
2019-05-22T00:57:24.207Z,0.00
2019-05-22T00:58:24.218Z,0.00
2019-05-22T00:59:24.210Z,0.00
2019-05-22T01:00:24.166Z,0.00
2019-05-22T01:01:24.160Z,0.00
2019-05-22T01:02:24.166Z,0.00
2019-05-22T01:03:24.184Z,0.00
2019-05-22T01:04:24.237Z,0.00
2019-05-22T01:05:24.181Z,0.00
2019-05-22T01:06:24.105Z,0.00
2019-05-22T01:07:24.091Z,0.00
2019-05-22T01:08:24.098Z,0.00
2019-05-22T01:09:24.135Z,0.00
2019-05-22T01:10:24.073Z,0.00
2019-05-22T01:11:24.096Z,0.00
2019-05-22T01:12:24.092Z,0.00
2019-05-22T01:13:24.039Z,0.00
2019-05-22T01:14:24.099Z,0.00
2019-05-22T01:15:24.041Z,0.00
2019-05-22T01:16:24.025Z,0.00
2019-05-22T01:17:24.012Z,0.00
2019-05-22T01:18:24.048Z,0.00
2019-05-22T01:19:24.024Z,0.00
2019-05-22T01:20:23.986Z,0.00
2019-05-22T01:21:24.032Z,0.00
2019-05-22T01:22:23.959Z,0.00
2019-05-22T01:23:23.904Z,0.00
2019-05-22T01:24:23.943Z,0.00
2019-05-22T01:25:23.951Z,0.00
2019-05-22T01:26:23.909Z,0.00
2019-05-22T01:27:23.894Z,0.00
2019-05-22T01:28:23.942Z,0.00
2019-05-22T01:29:24.436Z,0.00
2019-05-22T01:30:23.934Z,0.00
2019-05-22T01:31:23.853Z,0.00
2019-05-22T01:32:23.854Z,0.00
2019-05-22T01:33:23.871Z,0.00
2019-05-22T01:34:23.825Z,0.00
2019-05-22T01:35:23.854Z,0.00
2019-05-22T01:36:23.833Z,0.00
2019-05-22T01:37:23.803Z,0.00
2019-05-22T01:38:23.798Z,0.00
2019-05-22T01:39:23.756Z,0.00
2019-05-22T01:40:23.864Z,0.00
2019-05-22T01:41:23.752Z,0.00
2019-05-22T01:42:23.773Z,0.00
2019-05-22T01:43:23.728Z,0.00
2019-05-22T01:44:23.711Z,0.00
2019-05-22T01:45:23.698Z,0.00
2019-05-22T01:46:23.783Z,0.00
2019-05-22T01:47:23.659Z,0.00
2019-05-22T01:48:23.665Z,0.00
2019-05-22T01:49:24.438Z,0.00
2019-05-22T01:50:23.690Z,0.00
2019-05-22T01:51:23.655Z,0.00
2019-05-22T01:52:23.689Z,0.00
2019-05-22T01:53:23.600Z,0.00
2019-05-22T01:54:24.558Z,0.00
2019-05-22T01:55:23.578Z,0.00
2019-05-22T01:56:23.682Z,0.00
2019-05-22T01:57:23.585Z,0.00
2019-05-22T01:58:23.587Z,0.00
2019-05-22T01:59:27.122Z,0.00
2019-05-22T02:00:24.441Z,0.00
2019-05-22T02:01:23.582Z,0.00
2019-05-22T02:02:23.515Z,0.00
2019-05-22T02:03:24.442Z,0.00
2019-05-22T02:04:23.532Z,0.00
2019-05-22T02:05:23.492Z,0.00
2019-05-22T02:06:23.463Z,0.00
2019-05-22T02:07:23.456Z,0.00
2019-05-22T02:08:23.561Z,0.00
2019-05-22T02:09:23.563Z,0.00
2019-05-22T02:10:23.506Z,0.00
2019-05-22T02:11:23.443Z,0.00
2019-05-22T02:12:23.419Z,0.00
2019-05-22T02:13:23.387Z,0.00
2019-05-22T02:14:23.388Z,0.00
2019-05-22T02:15:23.641Z,0.00
2019-05-22T02:16:23.374Z,0.00
2019-05-22T02:17:23.339Z,0.00
2019-05-22T02:18:23.325Z,0.00
2019-05-22T02:19:23.338Z,0.00
2019-05-22T02:20:23.339Z,0.00
2019-05-22T02:21:23.314Z,0.00
2019-05-22T02:22:23.288Z,0.00
2019-05-22T02:23:23.280Z,0.00
2019-05-22T02:24:23.285Z,0.00
2019-05-22T02:25:23.273Z,0.00
2019-05-22T02:26:23.261Z,0.00
2019-05-22T02:27:23.237Z,0.00
2019-05-22T02:28:23.224Z,0.00
2019-05-22T02:29:23.209Z,0.00
2019-05-22T02:30:23.261Z,0.00
2019-05-22T02:31:23.224Z,0.00
2019-05-22T02:32:23.206Z,0.00
2019-05-22T02:33:23.181Z,0.00
2019-05-22T02:34:23.145Z,0.00
2019-05-22T02:35:23.135Z,4.00
2019-05-22T02:36:23.177Z,4.00
2019-05-22T02:37:32.582Z,4.00
2019-05-22T02:38:33.094Z,0.00
2019-05-22T02:39:23.086Z,4.00
2019-05-22T02:40:32.637Z,0.00
2019-05-22T02:41:31.663Z,0.00
2019-05-22T02:42:32.692Z,4.00
2019-05-22T02:43:32.234Z,4.00
2019-05-22T02:44:32.246Z,4.00
2019-05-22T02:45:23.060Z,4.00
2019-05-22T02:46:23.094Z,4.00
2019-05-22T02:47:23.048Z,4.00
2019-05-22T02:48:23.015Z,8.00
2019-05-22T02:49:23.003Z,8.00
2019-05-22T02:50:23.031Z,8.00
2019-05-22T02:51:22.991Z,8.00
2019-05-22T02:52:22.969Z,8.00
2019-05-22T02:53:22.998Z,8.00
2019-05-22T02:54:22.943Z,12.00
2019-05-22T02:55:22.929Z,12.00
2019-05-22T02:56:22.954Z,12.00
2019-05-22T02:57:22.922Z,16.00
2019-05-22T02:58:23.004Z,16.00
2019-05-22T02:59:22.882Z,16.00
2019-05-22T03:00:22.915Z,16.00
2019-05-22T03:01:22.869Z,16.00
2019-05-22T03:02:22.867Z,16.00
2019-05-22T03:03:22.859Z,16.00
2019-05-22T03:04:22.885Z,20.00
2019-05-22T03:05:22.871Z,20.00
2019-05-22T03:06:22.838Z,20.00
2019-05-22T03:07:22.804Z,24.00
2019-05-22T03:08:22.787Z,24.00
2019-05-22T03:09:22.799Z,24.00
2019-05-22T03:10:22.845Z,24.00
2019-05-22T03:11:22.762Z,24.00
2019-05-22T03:12:22.776Z,32.00
2019-05-22T03:13:22.809Z,32.00
2019-05-22T03:14:22.772Z,32.00
2019-05-22T03:15:22.814Z,32.00
2019-05-22T03:16:22.702Z,40.00
2019-05-22T03:17:22.710Z,44.00
2019-05-22T03:18:22.734Z,48.00
2019-05-22T03:19:22.676Z,48.00
2019-05-22T03:20:22.686Z,52.00
2019-05-22T03:21:22.702Z,56.00
2019-05-22T03:22:22.650Z,56.00
2019-05-22T03:23:22.628Z,64.00
2019-05-22T03:24:22.611Z,64.00
2019-05-22T03:25:22.682Z,68.00
2019-05-22T03:26:22.658Z,64.00
2019-05-22T03:27:22.616Z,68.00
2019-05-22T03:28:22.695Z,72.00
2019-05-22T03:29:22.594Z,80.00
2019-05-22T03:30:22.635Z,76.00
2019-05-22T03:31:22.552Z,84.00
2019-05-22T03:32:22.561Z,84.00
2019-05-22T03:33:22.538Z,88.00
2019-05-22T03:34:22.506Z,92.00
2019-05-22T03:35:22.561Z,92.00
2019-05-22T03:36:22.528Z,112.00
2019-05-22T03:37:22.496Z,116.00
2019-05-22T03:38:22.473Z,116.00
2019-05-22T03:39:22.466Z,108.00
2019-05-22T03:40:22.464Z,104.00
2019-05-22T03:41:22.428Z,116.00
2019-05-22T03:42:22.481Z,116.00
2019-05-22T03:43:22.437Z,128.00
2019-05-22T03:44:22.411Z,132.00
2019-05-22T03:45:22.466Z,144.00
2019-05-22T03:46:22.499Z,140.00
2019-05-22T03:47:22.385Z,156.00
2019-05-22T03:48:22.402Z,144.00
2019-05-22T03:49:31.054Z,152.00
2019-05-22T03:50:23.329Z,168.00
2019-05-22T03:51:22.470Z,164.00
2019-05-22T03:52:22.320Z,184.00
2019-05-22T03:53:22.348Z,184.00
2019-05-22T03:54:22.330Z,200.00
2019-05-22T03:55:22.295Z,228.00
2019-05-22T03:56:22.318Z,248.00
2019-05-22T03:57:22.299Z,232.00
2019-05-22T03:58:22.298Z,208.00
2019-05-22T03:59:22.299Z,228.00
2019-05-22T04:00:22.259Z,240.00
2019-05-22T04:01:22.243Z,284.00
2019-05-22T04:02:22.241Z,232.00
2019-05-22T04:03:22.230Z,264.00
2019-05-22T04:04:22.377Z,244.00
2019-05-22T04:05:22.248Z,256.00
2019-05-22T04:06:22.704Z,268.00
2019-05-22T04:07:22.194Z,260.00
2019-05-22T04:08:22.218Z,264.00
2019-05-22T04:09:22.458Z,272.00
2019-05-22T04:10:22.137Z,252.00
2019-05-22T04:11:22.135Z,276.00
2019-05-22T04:12:22.129Z,288.00
2019-05-22T04:13:22.148Z,280.00
2019-05-22T04:14:22.120Z,284.00
2019-05-22T04:15:22.790Z,300.00
2019-05-22T04:16:22.078Z,300.00
2019-05-22T04:17:22.158Z,292.00
2019-05-22T04:18:22.991Z,340.00
2019-05-22T04:19:22.101Z,340.00
2019-05-22T04:20:22.063Z,372.00
2019-05-22T04:21:22.059Z,388.00
2019-05-22T04:22:22.061Z,396.00
2019-05-22T04:23:22.015Z,352.00
2019-05-22T04:24:22.014Z,404.00
2019-05-22T04:25:21.988Z,364.00
2019-05-22T04:26:22.132Z,384.00
2019-05-22T04:27:22.172Z,376.00
2019-05-22T04:28:22.113Z,400.00
2019-05-22T04:29:22.060Z,376.00
2019-05-22T04:30:21.926Z,372.00
2019-05-22T04:31:21.971Z,360.00
2019-05-22T04:32:22.036Z,400.00
2019-05-22T04:33:22.048Z,424.00
2019-05-22T04:34:21.887Z,416.00
2019-05-22T04:35:21.992Z,448.00
2019-05-22T04:36:21.910Z,428.00
2019-05-22T04:37:21.966Z,440.00
2019-05-22T04:38:21.988Z,448.00
2019-05-22T04:39:21.862Z,404.00
2019-05-22T04:40:21.873Z,468.00
2019-05-22T04:41:21.837Z,456.00
2019-05-22T04:42:21.810Z,600.00
2019-05-22T04:43:21.778Z,612.00
2019-05-22T04:44:21.793Z,568.00
2019-05-22T04:45:21.977Z,668.00
2019-05-22T04:46:22.303Z,696.00
2019-05-22T04:47:21.780Z,732.00
2019-05-22T04:48:21.755Z,640.00
2019-05-22T04:49:21.735Z,704.00
2019-05-22T04:50:22.212Z,636.00
2019-05-22T04:51:21.703Z,608.00
2019-05-22T04:52:21.770Z,552.00
2019-05-22T04:53:21.679Z,564.00
2019-05-22T04:54:21.669Z,608.00
2019-05-22T04:55:21.709Z,572.00
2019-05-22T04:56:21.619Z,632.00
2019-05-22T04:57:21.655Z,696.00
2019-05-22T04:58:21.669Z,672.00
2019-05-22T04:59:21.632Z,708.00
2019-05-22T05:00:21.656Z,756.00
2019-05-22T05:01:21.668Z,780.00
2019-05-22T05:02:21.596Z,772.00
2019-05-22T05:03:21.642Z,796.00
2019-05-22T05:04:21.602Z,808.00
2019-05-22T05:05:21.613Z,892.00
2019-05-22T05:06:22.215Z,888.00
2019-05-22T05:07:22.219Z,896.00
2019-05-22T05:08:21.531Z,776.00
2019-05-22T05:09:21.521Z,684.00
2019-05-22T05:10:21.516Z,660.00
2019-05-22T05:11:21.492Z,744.00
2019-05-22T05:12:22.726Z,768.00
2019-05-22T05:13:21.540Z,776.00
2019-05-22T05:14:21.484Z,744.00
2019-05-22T05:15:21.453Z,812.00
2019-05-22T05:16:22.729Z,828.00
2019-05-22T05:18:42.607Z,872.00
2019-05-22T05:19:42.331Z,960.00
2019-05-22T05:20:42.324Z,1056.00
2019-05-22T05:21:43.013Z,1032.00
2019-05-22T05:22:44.634Z,1140.00
2019-05-22T05:23:42.374Z,1104.00
2019-05-22T05:24:43.137Z,1088.00
2019-05-22T05:25:43.254Z,1140.00
2019-05-22T05:26:42.276Z,1044.00
2019-05-22T05:27:42.169Z,956.00
2019-05-22T05:28:43.254Z,948.00
2019-05-22T05:29:45.328Z,1072.00
2019-05-22T05:30:42.261Z,1068.00
2019-05-22T05:31:42.168Z,1100.00
2019-05-22T05:32:42.213Z,1224.00
2019-05-22T05:33:42.142Z,1200.00
2019-05-22T05:34:45.276Z,1128.00
2019-05-22T05:35:42.109Z,1268.00
2019-05-22T05:36:42.249Z,1228.00
2019-05-22T05:37:43.753Z,1232.00
2019-05-22T05:38:42.069Z,1232.00
2019-05-22T05:39:42.081Z,1156.00
2019-05-22T05:40:42.033Z,1340.00
2019-05-22T05:41:42.046Z,1316.00
2019-05-22T05:42:42.037Z,1144.00
2019-05-22T05:43:42.009Z,964.00
2019-05-22T05:44:42.025Z,996.00
2019-05-22T05:45:42.041Z,1028.00
2019-05-22T05:46:41.968Z,1140.00
2019-05-22T05:47:41.974Z,1112.00
2019-05-22T05:48:41.934Z,1084.00
2019-05-22T05:49:41.927Z,1424.00
2019-05-22T05:50:41.947Z,1264.00
2019-05-22T05:51:41.913Z,1360.00
2019-05-22T05:52:41.883Z,1308.00
2019-05-22T05:53:41.870Z,1204.00
2019-05-22T05:54:41.948Z,1136.00
2019-05-22T05:55:42.451Z,1344.00
2019-05-22T05:56:41.917Z,1328.00
2019-05-22T05:57:41.923Z,1292.00
2019-05-22T05:58:41.847Z,1536.00
2019-05-22T05:59:41.900Z,1528.00
2019-05-22T06:00:44.585Z,1320.00
2019-05-22T06:01:41.864Z,1456.00
2019-05-22T06:02:55.700Z,1428.00
2019-05-22T06:03:42.852Z,1440.00
2019-05-22T06:04:41.842Z,1400.00
2019-05-22T06:05:41.898Z,1452.00
2019-05-22T06:06:41.835Z,1576.00
2019-05-22T06:07:42.023Z,1664.00
2019-05-22T06:08:41.785Z,1620.00
2019-05-22T06:09:41.783Z,1580.00
2019-05-22T06:10:41.770Z,1460.00
2019-05-22T06:11:41.726Z,1316.00
2019-05-22T06:12:41.727Z,1312.00
2019-05-22T06:13:41.697Z,1452.00
2019-05-22T06:14:41.670Z,1420.00
2019-05-22T06:15:46.977Z,1648.00
2019-05-22T06:16:42.637Z,2080.00
2019-05-22T06:17:41.745Z,2184.00
2019-05-22T06:18:41.616Z,2200.00
2019-05-22T06:19:41.635Z,2232.00
2019-05-22T06:20:41.600Z,2568.00
2019-05-22T06:21:41.584Z,2328.00
2019-05-22T06:22:42.366Z,2304.00
2019-05-22T06:23:41.762Z,2040.00
2019-05-22T06:24:41.595Z,2424.00
2019-05-22T06:25:41.531Z,2384.00
2019-05-22T06:26:41.550Z,2408.00
2019-05-22T06:27:41.552Z,2568.00
2019-05-22T06:28:41.608Z,2492.00
2019-05-22T06:29:41.541Z,2568.00
2019-05-22T06:30:41.497Z,2504.00
2019-05-22T06:31:41.505Z,2516.00
2019-05-22T06:32:41.690Z,2196.00
2019-05-22T06:33:41.509Z,2048.00
2019-05-22T06:34:41.505Z,1856.00
2019-05-22T06:35:41.465Z,1700.00
2019-05-22T06:36:41.632Z,1620.00
2019-05-22T06:37:41.469Z,1644.00
2019-05-22T06:38:41.531Z,1740.00
2019-05-22T06:39:41.480Z,1592.00
2019-05-22T06:40:41.423Z,1608.00
2019-05-22T06:41:41.415Z,1792.00
2019-05-22T06:42:41.445Z,2216.00
2019-05-22T06:43:41.412Z,2644.00
2019-05-22T06:44:41.457Z,2700.00
2019-05-22T06:45:41.384Z,2792.00
2019-05-22T06:46:41.426Z,3008.00
2019-05-22T06:47:41.320Z,3408.00
2019-05-22T06:48:41.339Z,3448.00
2019-05-22T06:49:41.304Z,3468.00
2019-05-22T06:50:41.315Z,3340.00
2019-05-22T06:51:41.292Z,3096.00
2019-05-22T06:52:41.262Z,3432.00
2019-05-22T06:53:41.261Z,3596.00
2019-05-22T06:54:41.260Z,3052.00
2019-05-22T06:55:41.280Z,3308.00
2019-05-22T06:56:41.264Z,2896.00
2019-05-22T06:57:41.228Z,2748.00
2019-05-22T06:58:41.181Z,2784.00
2019-05-22T06:59:41.215Z,2676.00
2019-05-22T07:00:41.180Z,3104.00
2019-05-22T07:01:41.272Z,2900.00
2019-05-22T07:02:41.178Z,2756.00
2019-05-22T07:03:41.167Z,3104.00
2019-05-22T07:04:41.132Z,3252.00
2019-05-22T07:05:41.135Z,3172.00
2019-05-22T07:06:41.144Z,3272.00
2019-05-22T07:07:41.113Z,3056.00
2019-05-22T07:08:41.775Z,3020.00
2019-05-22T07:09:41.099Z,3020.00
2019-05-22T07:10:41.098Z,3036.00
2019-05-22T07:11:41.053Z,3020.00
2019-05-22T07:12:41.110Z,2980.00
2019-05-22T07:13:41.064Z,2632.00
2019-05-22T07:14:41.046Z,2672.00
2019-05-22T07:15:41.074Z,2636.00
2019-05-22T07:16:41.037Z,2896.00
2019-05-22T07:17:41.026Z,2652.00
2019-05-22T07:18:41.024Z,2856.00
2019-05-22T07:19:41.006Z,2868.00
2019-05-22T07:20:40.998Z,3004.00
2019-05-22T07:21:40.936Z,2888.00
2019-05-22T07:22:41.007Z,2944.00
2019-05-22T07:23:40.929Z,3108.00
2019-05-22T07:24:40.921Z,3468.00
2019-05-22T07:25:40.974Z,3408.00
2019-05-22T07:26:40.901Z,3776.00
2019-05-22T07:27:40.908Z,3924.00
2019-05-22T07:28:40.921Z,4228.00
2019-05-22T07:29:41.958Z,4336.00
2019-05-22T07:30:40.894Z,4636.00
2019-05-22T07:31:40.860Z,4852.00
2019-05-22T07:32:40.871Z,4872.00
2019-05-22T07:33:40.841Z,4640.00
2019-05-22T07:34:40.838Z,4568.00
2019-05-22T07:36:04.818Z,4556.00
2019-05-22T07:36:41.837Z,4632.00
2019-05-22T07:37:40.774Z,4076.00
2019-05-22T07:38:40.756Z,4052.00
2019-05-22T07:39:40.757Z,3956.00
2019-05-22T07:40:40.765Z,4080.00
2019-05-22T07:41:40.774Z,3872.00
2019-05-22T07:42:40.785Z,4228.00
2019-05-22T07:43:41.918Z,4480.00
2019-05-22T07:44:40.719Z,4240.00
2019-05-22T07:45:40.868Z,4028.00
2019-05-22T07:46:40.683Z,4112.00
2019-05-22T07:47:40.752Z,4160.00
2019-05-22T07:48:40.673Z,3896.00
2019-05-22T07:49:40.636Z,4132.00
2019-05-22T07:50:40.673Z,3872.00
2019-05-22T07:51:52.003Z,3648.00
2019-05-22T07:52:41.654Z,3660.00
2019-05-22T07:53:40.638Z,3372.00
2019-05-22T07:54:40.598Z,3328.00
2019-05-22T07:55:40.656Z,3264.00
2019-05-22T07:56:40.562Z,3340.00
2019-05-22T07:57:40.675Z,3144.00
2019-05-22T07:58:40.572Z,3840.00
2019-05-22T07:59:40.566Z,3588.00
2019-05-22T08:00:40.601Z,3784.00
2019-05-22T08:01:40.625Z,3600.00
2019-05-22T08:02:40.524Z,3840.00
2019-05-22T08:03:41.287Z,3968.00
2019-05-22T08:04:40.583Z,3980.00
2019-05-22T08:05:41.359Z,3892.00
2019-05-22T08:06:41.299Z,4336.00
2019-05-22T08:07:40.527Z,4580.00
2019-05-22T08:08:40.567Z,4200.00
2019-05-22T08:09:40.450Z,4096.00
2019-05-22T08:10:40.451Z,4056.00
2019-05-22T08:11:40.408Z,4276.00
2019-05-22T08:12:40.464Z,3900.00
2019-05-22T08:13:40.478Z,4224.00
2019-05-22T08:14:40.446Z,4452.00
2019-05-22T08:15:40.373Z,4636.00
2019-05-22T08:16:40.349Z,4812.00
2019-05-22T08:17:40.340Z,4628.00
2019-05-22T08:18:40.371Z,5064.00
2019-05-22T08:19:40.593Z,5040.00
2019-05-22T08:20:40.368Z,4960.00
2019-05-22T08:21:40.342Z,5216.00
2019-05-22T08:22:40.354Z,5208.00
2019-05-22T08:23:40.363Z,4860.00
2019-05-22T08:24:40.284Z,4344.00
2019-05-22T08:25:40.802Z,4896.00
2019-05-22T08:26:53.372Z,4808.00
2019-05-22T08:27:41.266Z,4652.00
2019-05-22T08:28:40.224Z,5024.00
2019-05-22T08:29:40.238Z,4936.00
2019-05-22T08:30:40.239Z,4712.00
2019-05-22T08:31:40.368Z,4844.00
2019-05-22T08:32:40.220Z,4520.00
2019-05-22T08:33:40.208Z,4656.00
2019-05-22T08:34:40.336Z,4744.00
2019-05-22T08:35:40.847Z,4964.00
2019-05-22T08:36:40.187Z,4652.00
2019-05-22T08:37:40.805Z,4640.00
2019-05-22T08:38:40.256Z,4796.00
2019-05-22T08:39:40.139Z,5556.00
2019-05-22T08:40:40.139Z,5352.00
2019-05-22T08:41:40.113Z,4648.00
2019-05-22T08:42:40.143Z,4844.00
2019-05-22T08:44:03.290Z,4680.00
2019-05-22T08:44:41.057Z,4764.00
2019-05-22T08:45:40.037Z,4844.00
2019-05-22T08:46:50.398Z,5564.00
2019-05-22T08:47:40.011Z,5148.00
2019-05-22T08:48:46.956Z,5112.00
2019-05-22T08:49:40.991Z,4308.00
2019-05-22T08:50:39.991Z,4596.00
2019-05-22T08:51:39.973Z,4668.00
2019-05-22T08:52:40.005Z,4456.00
2019-05-22T08:53:47.253Z,4856.00
2019-05-22T08:54:40.968Z,5320.00
2019-05-22T08:55:39.999Z,5152.00
2019-05-22T08:56:39.953Z,5292.00
2019-05-22T08:57:39.956Z,5488.00
2019-05-22T08:58:39.915Z,5500.00
2019-05-22T08:59:39.897Z,5176.00
2019-05-22T09:00:39.895Z,5368.00
2019-05-22T09:01:39.889Z,5956.00
2019-05-22T09:02:39.931Z,5608.00
2019-05-22T09:03:39.925Z,6356.00
2019-05-22T09:04:39.851Z,5688.00
2019-05-22T09:05:39.855Z,5212.00
2019-05-22T09:06:39.909Z,5508.00
2019-05-22T09:07:39.794Z,5396.00
2019-05-22T09:08:39.830Z,5772.00
2019-05-22T09:09:39.805Z,6400.00
2019-05-22T09:10:39.786Z,6324.00
2019-05-22T09:11:39.787Z,5804.00
2019-05-22T09:12:39.763Z,6204.00
2019-05-22T09:13:39.738Z,5668.00
2019-05-22T09:14:39.735Z,5524.00
2019-05-22T09:15:39.710Z,5532.00
2019-05-22T09:16:39.696Z,5112.00
2019-05-22T09:17:39.693Z,4944.00
2019-05-22T09:18:39.708Z,5028.00
2019-05-22T09:19:39.699Z,5136.00
2019-05-22T09:20:48.780Z,5092.00
2019-05-22T09:21:40.796Z,5436.00
2019-05-22T09:22:41.330Z,5240.00
2019-05-22T09:23:39.652Z,5180.00
2019-05-22T09:24:39.657Z,4772.00
2019-05-22T09:25:39.603Z,4764.00
2019-05-22T09:26:39.652Z,5124.00
2019-05-22T09:27:39.585Z,5492.00
2019-05-22T09:28:39.609Z,5136.00
2019-05-22T09:29:39.565Z,5520.00
2019-05-22T09:30:39.587Z,5416.00
2019-05-22T09:31:39.701Z,5100.00
2019-05-22T09:32:39.521Z,5152.00
2019-05-22T09:33:39.575Z,4840.00
2019-05-22T09:34:39.558Z,4528.00
2019-05-22T09:35:39.490Z,5416.00
2019-05-22T09:36:39.511Z,5400.00
2019-05-22T09:37:39.477Z,4920.00
2019-05-22T09:38:39.462Z,4524.00
2019-05-22T09:39:39.450Z,4520.00
2019-05-22T09:40:39.471Z,4084.00
2019-05-22T09:41:39.444Z,4276.00
2019-05-22T09:42:39.446Z,4324.00
2019-05-22T09:43:39.443Z,4336.00
2019-05-22T09:44:39.409Z,4468.00
2019-05-22T09:45:39.392Z,5024.00
2019-05-22T09:46:39.388Z,4724.00
2019-05-22T09:47:39.374Z,4144.00
2019-05-22T09:48:39.374Z,4584.00
2019-05-22T09:49:39.345Z,5176.00
2019-05-22T09:50:39.343Z,5964.00
2019-05-22T09:51:39.375Z,5884.00
2019-05-22T09:52:39.380Z,5480.00
2019-05-22T09:53:39.329Z,5144.00
2019-05-22T09:54:39.438Z,4976.00
2019-05-22T09:55:39.288Z,5316.00
2019-05-22T09:56:39.308Z,5756.00
2019-05-22T09:57:39.279Z,5316.00
2019-05-22T09:58:39.255Z,5424.00
2019-05-22T09:59:39.257Z,5892.00
2019-05-22T10:00:39.255Z,5628.00
2019-05-22T10:01:39.229Z,5964.00
2019-05-22T10:02:39.234Z,6016.00
2019-05-22T10:03:39.190Z,5584.00
2019-05-22T10:04:39.197Z,6028.00
2019-05-22T10:05:39.232Z,6224.00
2019-05-22T10:06:39.188Z,5832.00
2019-05-22T10:07:56.990Z,6100.00
2019-05-22T10:08:40.224Z,6608.00
2019-05-22T10:09:39.135Z,6472.00
2019-05-22T10:10:39.145Z,6000.00
2019-05-22T10:11:39.148Z,5940.00
2019-05-22T10:12:39.100Z,5940.00
2019-05-22T10:13:39.418Z,6004.00
2019-05-22T10:14:39.132Z,6108.00
2019-05-22T10:15:39.070Z,6104.00
2019-05-22T10:16:39.151Z,6192.00
2019-05-22T10:17:39.063Z,6128.00
2019-05-22T10:18:39.059Z,6696.00
2019-05-22T10:19:39.024Z,6544.00
2019-05-22T10:20:39.086Z,6768.00
2019-05-22T10:21:39.003Z,6388.00
2019-05-22T10:22:38.987Z,6924.00
2019-05-22T10:23:38.989Z,6552.00
2019-05-22T10:24:38.977Z,6544.00
2019-05-22T10:25:38.956Z,6308.00
2019-05-22T10:26:38.942Z,6472.00
2019-05-22T10:27:38.941Z,5992.00
2019-05-22T10:28:38.943Z,5504.00
2019-05-22T10:29:38.923Z,5440.00
2019-05-22T10:30:38.935Z,5992.00
2019-05-22T10:31:38.897Z,5840.00
2019-05-22T10:32:38.881Z,5508.00
2019-05-22T10:33:38.882Z,5868.00
2019-05-22T10:34:38.857Z,6616.00
2019-05-22T10:35:38.852Z,6348.00
2019-05-22T10:36:38.881Z,6316.00
2019-05-22T10:37:38.848Z,5784.00
2019-05-22T10:38:38.810Z,6144.00
2019-05-22T10:39:38.820Z,5784.00
2019-05-22T10:40:38.798Z,5596.00
2019-05-22T10:41:38.778Z,5724.00
2019-05-22T10:42:38.782Z,6016.00
2019-05-22T10:43:38.756Z,6000.00
2019-05-22T10:44:38.753Z,6108.00
2019-05-22T10:45:38.748Z,5228.00
2019-05-22T10:46:38.765Z,4980.00
2019-05-22T10:47:38.744Z,4780.00
2019-05-22T10:48:40.420Z,5180.00
2019-05-22T10:49:38.685Z,4720.00
2019-05-22T10:50:38.675Z,4880.00
2019-05-22T10:51:38.680Z,4860.00
2019-05-22T10:52:38.676Z,4252.00
2019-05-22T10:53:38.650Z,5348.00
2019-05-22T10:54:38.663Z,5072.00
2019-05-22T10:55:38.659Z,4384.00
2019-05-22T10:56:38.634Z,4256.00
2019-05-22T10:57:41.010Z,4368.00
2019-05-22T10:58:38.623Z,4260.00
2019-05-22T10:59:38.595Z,3864.00
2019-05-22T11:00:38.578Z,4144.00
2019-05-22T11:01:38.604Z,4424.00
2019-05-22T11:02:38.604Z,4172.00
2019-05-22T11:03:38.545Z,4692.00
2019-05-22T11:04:38.562Z,4960.00
2019-05-22T11:05:38.529Z,4860.00
2019-05-22T11:06:38.513Z,5072.00
2019-05-22T11:07:38.505Z,5452.00
2019-05-22T11:08:38.512Z,5008.00
2019-05-22T11:09:38.502Z,4968.00
2019-05-22T11:10:38.480Z,5152.00
2019-05-22T11:11:38.460Z,4988.00
2019-05-22T11:12:38.656Z,4852.00
2019-05-22T11:13:38.505Z,5168.00
2019-05-22T11:14:38.469Z,5152.00
2019-05-22T11:15:38.419Z,5164.00
2019-05-22T11:16:38.398Z,6084.00
2019-05-22T11:17:38.395Z,6392.00
2019-05-22T11:18:38.416Z,6976.00
2019-05-22T11:19:38.387Z,6812.00
2019-05-22T11:20:38.365Z,7440.00
2019-05-22T11:21:38.361Z,7124.00
2019-05-22T11:22:38.338Z,7344.00
2019-05-22T11:23:51.145Z,8532.00
2019-05-22T11:24:39.350Z,7488.00
2019-05-22T11:25:38.320Z,7368.00
2019-05-22T11:26:38.301Z,6480.00
2019-05-22T11:27:38.308Z,6044.00
2019-05-22T11:28:38.285Z,5476.00
2019-05-22T11:29:38.308Z,5476.00
2019-05-22T11:30:38.268Z,5192.00
2019-05-22T11:31:38.262Z,5220.00
2019-05-22T11:32:38.272Z,6644.00
2019-05-22T11:33:38.368Z,5760.00
2019-05-22T11:34:38.224Z,4600.00
2019-05-22T11:35:38.238Z,4204.00
2019-05-22T11:36:38.248Z,3708.00
2019-05-22T11:37:38.207Z,3792.00
2019-05-22T11:38:38.204Z,3388.00
2019-05-22T11:39:40.323Z,3952.00
2019-05-22T11:40:39.180Z,3088.00
2019-05-22T11:41:38.157Z,3168.00
2019-05-22T11:42:38.149Z,3172.00
2019-05-22T11:43:38.189Z,3272.00
2019-05-22T11:44:38.115Z,3232.00
2019-05-22T11:45:38.152Z,3376.00
2019-05-22T11:46:45.599Z,3576.00
2019-05-22T11:47:38.052Z,3236.00
2019-05-22T11:48:38.064Z,3324.00
2019-05-22T11:49:38.053Z,3464.00
2019-05-22T11:50:38.063Z,3960.00
2019-05-22T11:51:38.048Z,4188.00
2019-05-22T11:52:38.010Z,3928.00
2019-05-22T11:53:38.082Z,3816.00
2019-05-22T11:54:38.016Z,3524.00
2019-05-22T11:55:45.298Z,3476.00
2019-05-22T11:56:39.002Z,3712.00
2019-05-22T11:57:37.979Z,3660.00
2019-05-22T11:58:37.955Z,3424.00
2019-05-22T11:59:37.976Z,3484.00
2019-05-22T12:00:37.940Z,3880.00
2019-05-22T12:01:38.033Z,3380.00
2019-05-22T12:02:37.948Z,3320.00
2019-05-22T12:03:37.905Z,3436.00
2019-05-22T12:04:47.789Z,3712.00
2019-05-22T12:05:38.891Z,3424.00
2019-05-22T12:06:37.877Z,3004.00
2019-05-22T12:07:37.905Z,2888.00
2019-05-22T12:08:37.866Z,2868.00
2019-05-22T12:09:37.864Z,2840.00
2019-05-22T12:10:37.830Z,2868.00
2019-05-22T12:11:37.878Z,2804.00
2019-05-22T12:12:37.821Z,2680.00
2019-05-22T12:13:37.792Z,2908.00
2019-05-22T12:14:37.785Z,2736.00
2019-05-22T12:15:37.764Z,2744.00
2019-05-22T12:16:37.783Z,2972.00
2019-05-22T12:17:38.918Z,2908.00
2019-05-22T12:18:37.741Z,2896.00
2019-05-22T12:19:37.732Z,3000.00
2019-05-22T12:20:37.783Z,2984.00
2019-05-22T12:21:37.705Z,3860.00
2019-05-22T12:22:37.738Z,3876.00
2019-05-22T12:23:37.724Z,3612.00
2019-05-22T12:24:37.889Z,3432.00
2019-05-22T12:25:37.724Z,3304.00
2019-05-22T12:26:37.659Z,3284.00
2019-05-22T12:27:37.744Z,3340.00
2019-05-22T12:28:37.723Z,3176.00